Time;durP1;ratioP1;P1;durP2;ratioP2;P2;SDS_P1;SDS_P2;PMS_P1;PMS_P2;Temp;Humidity;BMP_temperature;BMP_pressure;BME280_temperature;BME280_humidity;BME280_pressure;Samples;Min_cycle;Max_cycle;Signal;HPM_P1;HPM_P2
2021/12/24 00:02:00;;;;;;;;;;;7.40;99.90;;;;;;5134781;27;19907;-74
2021/12/24 00:04:26;;;;;;;;;;;7.30;99.90;;;;;;5134032;27;19907;-74
2021/12/24 00:06:52;;;;;;;;;;;7.30;99.90;;;;;;5134705;27;19918;-74
2021/12/24 00:09:23;;;;;;;;;;;7.30;99.90;;;;;;5133909;27;20290;-74
2021/12/24 00:11:50;;;;;;;;;;;7.20;99.90;;;;;;5134439;27;19953;-74
2021/12/24 00:14:15;;;;;;;;;;;7.20;99.90;;;;;;5134182;27;19908;-74
2021/12/24 00:16:52;;;;;;;;;;;7.20;99.90;;;;;;5134339;27;19961;-74
2021/12/24 00:19:36;;;;;;;;;;;7.20;99.90;;;;;;5134164;27;19958;-74
2021/12/24 00:35:33;;;;;;;;;;;6.90;99.90;;;;;;5133305;27;19957;-74
2021/12/24 00:38:03;;;;;;;;;;;6.80;99.90;;;;;;5133906;27;20284;-74
2021/12/24 00:40:30;;;;;;;;;;;6.80;99.90;;;;;;5133216;27;19908;-74
2021/12/24 00:42:56;;;;;;;;;;;6.80;99.90;;;;;;5133980;27;19939;-74
2021/12/24 00:45:24;;;;;;;;;;;6.70;99.90;;;;;;5133118;27;19996;-75
2021/12/24 00:47:50;;;;;;;;;;;6.60;99.90;;;;;;5133228;27;19923;-75
2021/12/24 00:50:19;;;;;;;;;;;6.60;99.90;;;;;;5133634;27;19990;-74
2021/12/24 00:52:51;;;;;;;;;;;6.60;99.90;;;;;;5133361;27;19943;-74
2021/12/24 00:55:18;;;;;;;;;;;6.50;99.90;;;;;;5133540;27;20382;-75
2021/12/24 00:57:49;;;;;;;;;;;6.50;99.90;;;;;;5133096;27;19915;-75
2021/12/24 01:00:26;;;;;;;;;;;6.50;99.90;;;;;;5133416;27;19907;-74
2021/12/24 01:02:53;;;;;;;;;;;6.50;99.90;;;;;;5133386;27;19907;-75
2021/12/24 01:05:19;;;;;;;;;;;6.50;99.90;;;;;;5132983;27;19908;-75
2021/12/24 01:07:46;;;;;;;;;;;6.50;99.90;;;;;;5133302;27;19998;-74
2021/12/24 01:10:13;;;;;;;;;;;6.50;99.90;;;;;;5133570;27;19977;-74
2021/12/24 01:12:39;;;;;;;;;;;6.50;99.90;;;;;;5132840;27;19904;-75
2021/12/24 01:15:05;;;;;;;;;;;6.50;99.90;;;;;;5133274;27;19908;-74
2021/12/24 01:17:43;;;;;;;;;;;6.50;99.90;;;;;;5132283;27;19908;-75
2021/12/24 01:20:22;;;;;;;;;;;6.50;99.90;;;;;;5133393;27;19914;-75
2021/12/24 01:25:41;;;;;;;;;;;6.40;99.90;;;;;;5132836;27;20476;-73
2021/12/24 01:28:38;;;;;;;;;;;6.40;99.90;;;;;;5115052;27;20419;-74
2021/12/24 01:44:54;;;;;;;;;;;6.20;99.90;;;;;;5133744;27;19964;-74
2021/12/24 01:47:20;;;;;;;;;;;6.20;99.90;;;;;;5133158;27;19923;-75
2021/12/24 01:49:45;;;;;;;;;;;6.30;99.90;;;;;;5132609;28;19930;-74
2021/12/24 01:52:11;;;;;;;;;;;6.40;99.90;;;;;;5133354;28;20360;-74
2021/12/24 01:54:38;;;;;;;;;;;6.50;99.90;;;;;;5132688;28;19907;-74
2021/12/24 01:57:05;;;;;;;;;;;6.50;99.90;;;;;;5133667;28;19907;-74
2021/12/24 01:59:30;;;;;;;;;;;6.40;99.90;;;;;;5132584;28;19908;-74
2021/12/24 02:01:56;;;;;;;;;;;6.30;99.90;;;;;;5133169;28;19956;-74
2021/12/24 02:04:21;;;;;;;;;;;6.30;99.90;;;;;;5133268;28;19915;-74
2021/12/24 02:06:48;;;;;;;;;;;6.30;99.90;;;;;;5132821;28;19919;-74
2021/12/24 02:09:14;;;;;;;;;;;6.30;99.90;;;;;;5133184;28;19961;-74
2021/12/24 02:11:40;;;;;;;;;;;6.30;99.90;;;;;;5132526;28;19915;-74
2021/12/24 02:14:10;;;;;;;;;;;6.30;99.90;;;;;;5134188;28;19908;-74
2021/12/24 02:29:55;;;;;;;;;;;6.10;99.90;;;;;;5135751;27;19919;-74
2021/12/24 02:32:20;;;;;;;;;;;6.20;99.90;;;;;;5136885;27;20268;-74
2021/12/24 02:34:46;;;;;;;;;;;6.10;99.90;;;;;;5136251;27;19915;-74
2021/12/24 02:37:12;;;;;;;;;;;6.10;99.90;;;;;;5136990;27;19969;-74
2021/12/24 02:39:38;;;;;;;;;;;6.10;99.90;;;;;;5135953;27;19914;-74
2021/12/24 02:42:30;;;;;;;;;;;6.00;99.90;;;;;;5136907;27;20259;-74
2021/12/24 02:44:56;;;;;;;;;;;6.00;99.90;;;;;;5131821;27;19915;-74
2021/12/24 02:54:59;;;;;;;;;;;6.00;99.90;;;;;;5136920;27;19913;-74
2021/12/24 02:57:28;;;;;;;;;;;6.10;99.90;;;;;;5118258;27;19907;-74
2021/12/24 03:00:15;;;;;;;;;;;5.90;99.90;;;;;;5136464;27;20002;-74
2021/12/24 03:02:43;;;;;;;;;;;6.00;99.90;;;;;;5135480;27;19908;-74
2021/12/24 03:05:10;;;;;;;;;;;5.90;99.90;;;;;;5136734;27;19914;-74
2021/12/24 03:07:35;;;;;;;;;;;5.90;99.90;;;;;;5135246;27;19941;-74
2021/12/24 03:10:01;;;;;;;;;;;5.90;99.90;;;;;;5136637;27;19919;-74
2021/12/24 03:12:27;;;;;;;;;;;5.80;99.90;;;;;;5136003;27;20316;-74
2021/12/24 03:14:52;;;;;;;;;;;5.80;99.90;;;;;;5136218;27;19998;-74
2021/12/24 03:17:22;;;;;;;;;;;5.80;99.90;;;;;;5135936;27;19956;-74
2021/12/24 03:19:48;;;;;;;;;;;5.70;99.90;;;;;;5135661;27;20057;-74
2021/12/24 03:24:39;;;;;;;;;;;5.70;99.90;;;;;;5135261;27;19907;-74
2021/12/24 03:27:05;;;;;;;;;;;5.70;99.90;;;;;;5136032;27;19934;-74
2021/12/24 03:29:31;;;;;;;;;;;5.60;99.90;;;;;;5135178;27;19911;-74
2021/12/24 03:31:57;;;;;;;;;;;5.50;99.90;;;;;;5136042;27;19915;-74
2021/12/24 03:34:23;;;;;;;;;;;5.50;99.90;;;;;;5135957;27;19907;-74
2021/12/24 03:36:49;;;;;;;;;;;5.50;99.90;;;;;;5134943;27;20373;-74
2021/12/24 03:39:15;;;;;;;;;;;5.50;99.90;;;;;;5117535;27;19907;-74
2021/12/24 03:41:41;;;;;;;;;;;5.50;99.90;;;;;;5134742;27;20370;-74
2021/12/24 03:44:09;;;;;;;;;;;5.60;99.90;;;;;;5135539;27;19951;-74
2021/12/24 03:46:46;;;;;;;;;;;5.60;99.90;;;;;;5134677;27;19985;-74
2021/12/24 03:52:15;;;;;;;;;;;5.40;99.90;;;;;;5136081;27;19914;-74
2021/12/24 03:54:57;;;;;;;;;;;5.40;99.90;;;;;;5116405;27;20288;-74
2021/12/24 03:57:24;;;;;;;;;;;5.40;99.90;;;;;;5135431;27;19908;-74
2021/12/24 03:59:50;;;;;;;;;;;5.40;99.90;;;;;;5134569;27;20485;-74
2021/12/24 04:02:15;;;;;;;;;;;5.30;99.90;;;;;;5135578;27;19907;-74
2021/12/24 04:04:41;;;;;;;;;;;5.30;99.90;;;;;;5134582;27;19950;-74
2021/12/24 04:07:07;;;;;;;;;;;5.40;99.90;;;;;;5135179;27;19911;-74
2021/12/24 04:09:34;;;;;;;;;;;5.30;99.90;;;;;;5134636;27;20002;-74
2021/12/24 04:11:59;;;;;;;;;;;5.30;99.90;;;;;;5135176;27;20049;-74
2021/12/24 04:14:25;;;;;;;;;;;5.30;99.90;;;;;;5135200;27;19939;-74
2021/12/24 04:16:51;;;;;;;;;;;5.30;99.90;;;;;;5134194;27;19908;-74
2021/12/24 04:27:16;;;;;;;;;;;5.30;99.90;;;;;;5134935;27;19937;-74
2021/12/24 04:29:42;;;;;;;;;;;5.30;99.90;;;;;;5133614;27;20002;-74
2021/12/24 04:32:18;;;;;;;;;;;5.30;99.90;;;;;;5134717;27;19908;-74
2021/12/24 04:34:48;;;;;;;;;;;5.40;99.90;;;;;;5115709;27;19911;-74
2021/12/24 04:38:05;;;;;;;;;;;5.30;99.90;;;;;;5134704;27;20245;-74
2021/12/24 04:51:18;;;;;;;;;;;5.40;99.90;;;;;;5133488;27;19963;-74
2021/12/24 05:04:34;;;;;;;;;;;5.20;99.90;;;;;;5134252;27;19908;-74
2021/12/24 05:07:16;;;;;;;;;;;5.20;99.90;;;;;;5133022;27;19951;-74
2021/12/24 05:09:42;;;;;;;;;;;5.30;99.90;;;;;;5114738;27;19917;-74
2021/12/24 05:12:08;;;;;;;;;;;5.30;99.90;;;;;;5134046;27;19998;-74
2021/12/24 05:14:33;;;;;;;;;;;5.20;99.90;;;;;;5133962;27;19981;-74
2021/12/24 05:17:19;;;;;;;;;;;5.20;99.90;;;;;;5133059;27;20367;-74
2021/12/24 05:22:30;;;;;;;;;;;5.00;99.90;;;;;;5134092;27;19914;-74
2021/12/24 05:25:00;;;;;;;;;;;5.10;99.90;;;;;;5132939;27;19903;-74
2021/12/24 05:27:25;;;;;;;;;;;5.00;99.90;;;;;;5133877;27;19918;-74
2021/12/24 05:29:52;;;;;;;;;;;5.00;99.90;;;;;;5132732;27;19915;-74
2021/12/24 05:32:18;;;;;;;;;;;5.00;99.90;;;;;;5133897;27;19907;-74
2021/12/24 05:34:43;;;;;;;;;;;4.90;99.90;;;;;;5132986;27;19917;-75
2021/12/24 05:37:09;;;;;;;;;;;5.00;99.90;;;;;;5133424;27;19930;-74
2021/12/24 05:39:34;;;;;;;;;;;5.10;99.90;;;;;;5133375;27;19914;-74
2021/12/24 05:42:00;;;;;;;;;;;5.10;99.90;;;;;;5114458;28;19963;-74
2021/12/24 05:44:26;;;;;;;;;;;5.10;99.90;;;;;;5133433;27;19915;-74
2021/12/24 05:46:52;;;;;;;;;;;5.10;99.90;;;;;;5132287;27;19927;-74
2021/12/24 05:49:17;;;;;;;;;;;5.10;99.90;;;;;;5133548;27;20433;-74
2021/12/24 05:51:43;;;;;;;;;;;5.20;99.90;;;;;;5132623;28;19911;-74
2021/12/24 05:54:09;;;;;;;;;;;5.10;99.90;;;;;;5133584;28;19915;-74
2021/12/24 05:56:34;;;;;;;;;;;5.10;99.90;;;;;;5133367;28;19915;-74
2021/12/24 05:59:00;;;;;;;;;;;5.10;99.90;;;;;;5132363;28;19904;-74
2021/12/24 06:01:26;;;;;;;;;;;5.10;99.90;;;;;;5133329;28;19908;-74
2021/12/24 06:03:51;;;;;;;;;;;5.20;99.90;;;;;;5134807;27;19996;-74
2021/12/24 06:06:17;;;;;;;;;;;5.10;99.90;;;;;;5137673;27;19908;-74
2021/12/24 06:08:43;;;;;;;;;;;5.10;99.90;;;;;;5136742;27;19923;-73
2021/12/24 06:11:08;;;;;;;;;;;5.10;99.90;;;;;;5137437;27;20002;-73
2021/12/24 06:13:35;;;;;;;;;;;5.10;99.90;;;;;;5137482;27;19912;-73
2021/12/24 06:16:01;;;;;;;;;;;5.10;99.90;;;;;;5136358;27;20541;-73
2021/12/24 06:18:29;;;;;;;;;;;5.10;99.90;;;;;;5137450;27;19993;-73
2021/12/24 06:20:57;;;;;;;;;;;5.10;99.90;;;;;;5136698;27;19907;-73
2021/12/24 06:23:24;;;;;;;;;;;5.10;99.90;;;;;;5139060;27;19953;-74
2021/12/24 06:25:51;;;;;;;;;;;5.10;99.90;;;;;;5139194;27;20358;-73
2021/12/24 06:28:17;;;;;;;;;;;5.00;99.90;;;;;;5137320;27;19934;-73
2021/12/24 06:30:43;;;;;;;;;;;5.00;99.90;;;;;;5136437;27;19955;-72
2021/12/24 06:33:09;;;;;;;;;;;5.00;99.90;;;;;;5136832;27;20352;-73
2021/12/24 06:35:34;;;;;;;;;;;5.00;99.90;;;;;;5136987;27;19907;-73
2021/12/24 06:38:01;;;;;;;;;;;5.00;99.90;;;;;;5136023;27;20079;-73
2021/12/24 06:40:26;;;;;;;;;;;5.00;99.90;;;;;;5136982;27;19922;-72
2021/12/24 06:42:52;;;;;;;;;;;5.00;99.90;;;;;;5136055;27;19907;-73
2021/12/24 06:45:22;;;;;;;;;;;5.00;99.90;;;;;;5136822;27;19930;-72
2021/12/24 06:47:48;;;;;;;;;;;5.10;99.90;;;;;;5135569;27;19941;-73
2021/12/24 06:50:13;;;;;;;;;;;5.20;99.90;;;;;;5136504;27;19912;-72
2021/12/24 06:52:39;;;;;;;;;;;5.30;99.90;;;;;;5136772;27;20317;-72
2021/12/24 06:55:05;;;;;;;;;;;5.40;99.90;;;;;;5135827;27;19907;-73
2021/12/24 06:57:31;;;;;;;;;;;5.30;99.90;;;;;;5136628;27;20260;-73
2021/12/24 06:59:56;;;;;;;;;;;5.30;99.90;;;;;;5135477;27;19956;-73
2021/12/24 07:02:22;;;;;;;;;;;5.40;99.90;;;;;;5136063;27;20002;-73
2021/12/24 07:04:47;;;;;;;;;;;5.40;99.90;;;;;;5135677;27;19907;-74
2021/12/24 07:07:13;;;;;;;;;;;5.40;99.90;;;;;;5136250;27;19919;-73
2021/12/24 07:09:42;;;;;;;;;;;5.40;99.90;;;;;;5136399;27;19957;-73
2021/12/24 07:12:12;;;;;;;;;;;5.50;99.90;;;;;;5117714;27;19952;-73
2021/12/24 07:14:38;;;;;;;;;;;5.50;99.90;;;;;;5135660;27;19914;-74
2021/12/24 07:17:04;;;;;;;;;;;5.50;99.90;;;;;;5135370;27;20524;-74
2021/12/24 07:19:30;;;;;;;;;;;5.60;99.90;;;;;;5135990;27;19915;-74
2021/12/24 07:21:55;;;;;;;;;;;5.60;99.90;;;;;;5135354;27;20298;-74
2021/12/24 07:24:21;;;;;;;;;;;5.60;99.90;;;;;;5136291;27;19952;-74
2021/12/24 07:26:47;;;;;;;;;;;5.90;99.90;;;;;;5135397;27;19916;-75
2021/12/24 07:29:12;;;;;;;;;;;5.90;99.90;;;;;;5135753;27;20376;-74
2021/12/24 07:31:38;;;;;;;;;;;5.90;99.90;;;;;;5135752;27;19973;-74
2021/12/24 07:34:03;;;;;;;;;;;5.80;99.90;;;;;;5116545;27;20778;-74
2021/12/24 07:36:29;;;;;;;;;;;5.80;99.90;;;;;;5117500;27;19907;-74
2021/12/24 07:38:54;;;;;;;;;;;5.90;99.90;;;;;;5135123;27;19908;-74
2021/12/24 07:41:20;;;;;;;;;;;5.90;99.90;;;;;;5136148;27;20359;-73
2021/12/24 07:43:46;;;;;;;;;;;6.00;99.90;;;;;;5135419;27;19915;-73
2021/12/24 07:46:12;;;;;;;;;;;6.20;99.90;;;;;;5135254;27;19907;-75
2021/12/24 07:48:45;;;;;;;;;;;6.40;99.90;;;;;;5135263;27;20383;-74
2021/12/24 07:54:00;;;;;;;;;;;6.90;99.90;;;;;;5147103;27;19914;-74
2021/12/24 07:56:26;;;;;;;;;;;7.20;99.90;;;;;;5156354;27;19907;-74
2021/12/24 07:58:52;;;;;;;;;;;7.40;99.90;;;;;;5155157;27;19907;-74
2021/12/24 08:01:17;;;;;;;;;;;7.70;99.90;;;;;;5156145;27;19907;-73
2021/12/24 08:03:43;;;;;;;;;;;7.80;99.90;;;;;;5155994;27;19912;-74
2021/12/24 08:06:08;;;;;;;;;;;8.00;99.90;;;;;;5155300;27;20469;-75
2021/12/24 08:08:34;;;;;;;;;;;8.10;99.90;;;;;;5155991;27;19960;-75
2021/12/24 08:10:59;;;;;;;;;;;8.20;99.90;;;;;;5154994;27;19960;-75
2021/12/24 08:13:25;;;;;;;;;;;8.30;99.90;;;;;;5156180;27;20385;-74
2021/12/24 08:15:54;;;;;;;;;;;8.30;99.90;;;;;;5155243;27;19907;-75
2021/12/24 08:18:19;;;;;;;;;;;8.30;99.90;;;;;;5155647;27;19907;-74
2021/12/24 08:20:45;;;;;;;;;;;8.40;99.90;;;;;;5155780;27;19952;-74
2021/12/24 08:23:10;;;;;;;;;;;8.50;99.90;;;;;;5154756;27;19910;-74
2021/12/24 08:25:36;;;;;;;;;;;8.50;99.90;;;;;;5155150;27;19913;-74
2021/12/24 08:28:02;;;;;;;;;;;8.50;99.90;;;;;;5135154;27;19940;-74
2021/12/24 08:30:27;;;;;;;;;;;8.50;99.90;;;;;;5155642;27;20275;-75
2021/12/24 08:32:55;;;;;;;;;;;8.50;99.90;;;;;;5154457;27;20453;-75
2021/12/24 08:35:21;;;;;;;;;;;8.50;99.90;;;;;;5155288;27;20241;-75
2021/12/24 08:37:48;;;;;;;;;;;8.60;99.90;;;;;;5155278;27;19959;-75
2021/12/24 08:40:14;;;;;;;;;;;8.60;99.90;;;;;;5154640;27;19918;-74
2021/12/24 08:42:40;;;;;;;;;;;8.70;99.90;;;;;;5155085;27;19918;-74
2021/12/24 08:45:06;;;;;;;;;;;8.60;99.90;;;;;;5153974;27;19912;-75
2021/12/24 08:47:32;;;;;;;;;;;8.60;99.90;;;;;;5155214;27;20256;-74
2021/12/24 08:49:57;;;;;;;;;;;8.60;99.90;;;;;;5135674;27;19907;-75
2021/12/24 08:52:23;;;;;;;;;;;8.70;99.90;;;;;;5140426;27;19960;-74
2021/12/24 08:54:48;;;;;;;;;;;8.70;99.90;;;;;;5160095;27;19914;-74
2021/12/24 08:57:14;;;;;;;;;;;8.80;99.90;;;;;;5154745;27;19907;-73
2021/12/24 08:59:40;;;;;;;;;;;8.80;99.90;;;;;;5155157;27;20397;-75
2021/12/24 09:02:05;;;;;;;;;;;8.80;99.90;;;;;;5154260;27;19929;-74
2021/12/24 09:04:31;;;;;;;;;;;8.80;99.90;;;;;;5154446;27;20029;-74
2021/12/24 09:06:56;;;;;;;;;;;8.80;99.90;;;;;;5153911;27;19926;-74
2021/12/24 09:09:22;;;;;;;;;;;8.90;99.90;;;;;;5154855;27;19919;-74
2021/12/24 09:11:47;;;;;;;;;;;8.90;99.90;;;;;;5154758;27;20367;-75
2021/12/24 09:14:18;;;;;;;;;;;8.90;99.90;;;;;;5153299;27;19914;-73
2021/12/24 09:16:45;;;;;;;;;;;9.00;99.90;;;;;;5154985;27;19911;-74
2021/12/24 09:19:14;;;;;;;;;;;9.00;99.90;;;;;;5153783;27;19961;-73
2021/12/24 09:21:40;;;;;;;;;;;9.00;99.90;;;;;;5151147;27;19911;-74
2021/12/24 09:24:07;;;;;;;;;;;9.00;99.90;;;;;;5154253;27;20312;-74
2021/12/24 09:26:33;;;;;;;;;;;9.10;99.90;;;;;;5154075;27;19958;-74
2021/12/24 09:29:00;;;;;;;;;;;9.10;99.90;;;;;;5152638;27;19990;-74
2021/12/24 09:31:26;;;;;;;;;;;9.10;99.90;;;;;;5154054;27;20006;-73
2021/12/24 09:33:52;;;;;;;;;;;9.10;99.90;;;;;;5153551;27;19979;-74
2021/12/24 09:36:24;;;;;;;;;;;9.10;99.90;;;;;;5152674;27;20279;-74
2021/12/24 09:38:49;;;;;;;;;;;9.10;99.90;;;;;;5153522;27;19914;-74
2021/12/24 09:41:15;;;;;;;;;;;9.20;99.90;;;;;;5152642;27;19903;-74
2021/12/24 09:43:41;;;;;;;;;;;9.20;99.90;;;;;;5153815;27;19959;-74
2021/12/24 09:46:06;;;;;;;;;;;9.20;99.90;;;;;;5133846;27;19915;-75
2021/12/24 09:48:34;;;;;;;;;;;9.20;99.90;;;;;;5152203;27;20261;-74
2021/12/24 09:51:00;;;;;;;;;;;9.30;99.90;;;;;;5152701;27;19911;-74
2021/12/24 09:53:25;;;;;;;;;;;9.30;99.90;;;;;;5153334;27;20355;-74
2021/12/24 09:55:51;;;;;;;;;;;9.40;99.90;;;;;;5134963;27;19914;-74
2021/12/24 09:58:17;;;;;;;;;;;9.40;99.90;;;;;;5152805;27;19915;-73
2021/12/24 10:00:43;;;;;;;;;;;9.40;99.90;;;;;;5153665;27;19907;-74
2021/12/24 10:03:08;;;;;;;;;;;9.50;99.90;;;;;;5152565;27;19913;-74
2021/12/24 10:05:37;;;;;;;;;;;9.50;99.90;;;;;;5153143;27;20001;-74
2021/12/24 10:08:06;;;;;;;;;;;9.60;99.90;;;;;;5152647;27;19911;-73
2021/12/24 10:10:32;;;;;;;;;;;9.60;99.90;;;;;;5153324;27;19911;-74
2021/12/24 10:13:16;;;;;;;;;;;9.60;99.90;;;;;;5152274;27;19907;-75
2021/12/24 10:15:52;;;;;;;;;;;9.60;99.90;;;;;;5153589;27;19907;-74
2021/12/24 10:18:36;;;;;;;;;;;9.70;99.90;;;;;;5152433;27;19951;-74
2021/12/24 10:21:07;;;;;;;;;;;9.70;99.90;;;;;;5152467;27;19960;-75
2021/12/24 10:23:40;;;;;;;;;;;9.70;99.90;;;;;;5134642;27;19907;-74
2021/12/24 10:26:10;;;;;;;;;;;9.70;99.90;;;;;;5152715;27;20325;-73
2021/12/24 10:28:36;;;;;;;;;;;9.70;99.90;;;;;;5153070;27;20007;-75
2021/12/24 10:31:01;;;;;;;;;;;9.70;99.90;;;;;;5152079;27;19938;-74
2021/12/24 10:33:27;;;;;;;;;;;9.80;99.90;;;;;;5153071;27;19952;-75
2021/12/24 10:36:02;;;;;;;;;;;9.80;99.90;;;;;;5152692;27;20403;-75
2021/12/24 10:38:28;;;;;;;;;;;9.80;99.90;;;;;;5153130;27;19913;-75
2021/12/24 10:40:55;;;;;;;;;;;9.80;99.90;;;;;;5152992;27;19918;-75
2021/12/24 10:43:29;;;;;;;;;;;9.90;99.90;;;;;;5152517;27;19954;-75
2021/12/24 10:46:11;;;;;;;;;;;9.90;99.90;;;;;;5152793;27;19911;-75
2021/12/24 10:48:37;;;;;;;;;;;9.90;99.90;;;;;;5152757;27;20460;-74
2021/12/24 10:51:18;;;;;;;;;;;10.00;99.90;;;;;;5135918;27;19976;-75
2021/12/24 10:54:02;;;;;;;;;;;10.00;99.90;;;;;;5156727;27;19911;-75
2021/12/24 10:56:28;;;;;;;;;;;10.00;99.90;;;;;;5156706;27;20324;-75
2021/12/24 10:58:54;;;;;;;;;;;10.00;99.90;;;;;;5156598;27;19971;-74
2021/12/24 11:01:19;;;;;;;;;;;10.00;99.90;;;;;;5155838;27;20316;-75
2021/12/24 11:03:45;;;;;;;;;;;10.00;99.90;;;;;;5156370;27;20235;-75
2021/12/24 11:06:13;;;;;;;;;;;10.00;99.90;;;;;;5155258;27;19911;-74
2021/12/24 11:08:39;;;;;;;;;;;10.00;99.90;;;;;;5156372;27;19919;-74
2021/12/24 11:11:06;;;;;;;;;;;10.10;99.90;;;;;;5155329;27;19956;-75
2021/12/24 11:13:39;;;;;;;;;;;10.10;99.90;;;;;;5156293;27;19907;-74
2021/12/24 11:16:06;;;;;;;;;;;10.10;99.90;;;;;;5155498;27;20347;-74
2021/12/24 11:18:34;;;;;;;;;;;10.10;99.90;;;;;;5156371;27;20267;-74
2021/12/24 11:21:04;;;;;;;;;;;10.10;99.90;;;;;;5136914;27;19914;-73
2021/12/24 11:23:31;;;;;;;;;;;10.10;99.90;;;;;;5156410;27;19914;-74
2021/12/24 11:25:58;;;;;;;;;;;10.10;99.90;;;;;;5155967;27;19918;-74
2021/12/24 11:28:24;;;;;;;;;;;10.10;99.90;;;;;;5155647;27;20427;-74
2021/12/24 11:30:52;;;;;;;;;;;10.10;99.90;;;;;;5137722;27;20275;-74
2021/12/24 11:33:20;;;;;;;;;;;10.10;99.90;;;;;;5155246;27;19903;-75
2021/12/24 11:35:47;;;;;;;;;;;10.10;99.90;;;;;;5155814;27;19908;-73
2021/12/24 11:38:14;;;;;;;;;;;10.10;99.90;;;;;;5136519;27;19955;-74
2021/12/24 11:40:40;;;;;;;;;;;10.10;99.90;;;;;;5155539;27;20315;-74
2021/12/24 11:43:06;;;;;;;;;;;10.20;99.90;;;;;;5154896;27;19958;-74
2021/12/24 11:45:33;;;;;;;;;;;10.10;99.90;;;;;;5155629;27;20359;-74
2021/12/24 11:47:59;;;;;;;;;;;10.10;99.90;;;;;;5154841;27;19926;-74
2021/12/24 11:50:26;;;;;;;;;;;10.10;99.90;;;;;;5136939;27;19910;-74
2021/12/24 11:52:53;;;;;;;;;;;10.20;99.90;;;;;;5137085;27;20001;-74
2021/12/24 11:55:19;;;;;;;;;;;10.20;99.90;;;;;;5154615;27;19903;-74
2021/12/24 11:57:53;;;;;;;;;;;10.20;99.90;;;;;;5154851;27;19907;-76
2021/12/24 12:00:26;;;;;;;;;;;10.20;99.90;;;;;;5154734;27;20525;-74
2021/12/24 12:02:52;;;;;;;;;;;10.20;99.90;;;;;;5155148;27;19907;-74
2021/12/24 12:05:26;;;;;;;;;;;10.20;99.90;;;;;;5154391;27;19907;-74
2021/12/24 12:08:11;;;;;;;;;;;10.20;99.90;;;;;;5153830;27;19934;-75
2021/12/24 12:11:04;;;;;;;;;;;10.20;99.90;;;;;;5154904;27;20352;-74
2021/12/24 12:13:43;;;;;;;;;;;10.20;99.90;;;;;;5150035;27;19985;-75
2021/12/24 12:16:11;;;;;;;;;;;10.20;99.90;;;;;;5154270;27;20279;-73
2021/12/24 12:18:44;;;;;;;;;;;10.20;99.90;;;;;;5136426;27;19969;-75
2021/12/24 12:21:12;;;;;;;;;;;10.20;99.90;;;;;;5154120;27;20010;-75
2021/12/24 12:26:41;;;;;;;;;;;10.20;99.90;;;;;;5154602;27;19935;-75
2021/12/24 12:29:27;;;;;;;;;;;10.20;99.90;;;;;;5153791;27;19915;-75
2021/12/24 12:32:24;;;;;;;;;;;10.20;99.90;;;;;;5154468;27;19914;-75
2021/12/24 12:34:51;;;;;;;;;;;10.20;99.90;;;;;;5115372;27;19912;-74
2021/12/24 12:37:22;;;;;;;;;;;10.10;99.90;;;;;;5153094;27;19943;-74
2021/12/24 12:39:55;;;;;;;;;;;10.20;99.90;;;;;;5154355;27;19907;-76
2021/12/24 12:42:24;;;;;;;;;;;10.20;99.90;;;;;;5153772;27;20369;-75
2021/12/24 12:44:52;;;;;;;;;;;10.10;99.90;;;;;;5154802;27;19911;-74
2021/12/24 12:47:22;;;;;;;;;;;10.20;99.90;;;;;;5153593;27;20375;-74
2021/12/24 12:49:48;;;;;;;;;;;10.20;99.90;;;;;;5154366;27;19907;-75
2021/12/24 12:52:20;;;;;;;;;;;10.20;99.90;;;;;;5135227;27;19918;-74
2021/12/24 12:54:47;;;;;;;;;;;10.20;99.90;;;;;;5154394;27;19959;-74
2021/12/24 12:57:20;;;;;;;;;;;10.20;99.90;;;;;;5153410;27;19967;-74
2021/12/24 13:00:04;;;;;;;;;;;10.20;99.90;;;;;;5154310;27;19960;-75
2021/12/24 13:02:48;;;;;;;;;;;10.20;99.90;;;;;;5153889;27;20321;-74
2021/12/24 13:05:14;;;;;;;;;;;10.20;99.90;;;;;;5153098;27;19911;-75
2021/12/24 13:07:40;;;;;;;;;;;10.20;99.90;;;;;;5153992;27;19956;-74
2021/12/24 13:10:05;;;;;;;;;;;10.30;99.90;;;;;;5153401;27;20280;-74
2021/12/24 13:12:31;;;;;;;;;;;10.30;99.90;;;;;;5153692;27;20304;-75
2021/12/24 13:14:59;;;;;;;;;;;10.30;99.90;;;;;;5154022;27;19911;-74
2021/12/24 13:17:31;;;;;;;;;;;10.30;99.90;;;;;;5153029;27;19907;-74
2021/12/24 13:20:15;;;;;;;;;;;10.30;99.90;;;;;;5153735;27;19911;-74
2021/12/24 13:22:40;;;;;;;;;;;10.40;99.90;;;;;;5153880;27;19907;-75
2021/12/24 13:25:14;;;;;;;;;;;10.40;99.90;;;;;;5152864;27;19907;-75
2021/12/24 13:27:44;;;;;;;;;;;10.40;99.90;;;;;;5134869;27;19966;-75
2021/12/24 13:30:13;;;;;;;;;;;10.40;99.90;;;;;;5153176;27;19911;-74
2021/12/24 13:32:39;;;;;;;;;;;10.40;99.90;;;;;;5153735;27;19907;-74
2021/12/24 13:35:05;;;;;;;;;;;10.40;99.90;;;;;;5152686;27;20275;-74
2021/12/24 13:37:31;;;;;;;;;;;10.40;99.90;;;;;;5153423;27;19991;-74
2021/12/24 13:39:56;;;;;;;;;;;10.40;99.90;;;;;;5134911;27;20275;-74
2021/12/24 13:42:22;;;;;;;;;;;10.40;99.90;;;;;;5152377;27;19903;-74
2021/12/24 13:44:49;;;;;;;;;;;10.40;99.90;;;;;;5153735;27;19916;-75
2021/12/24 13:47:33;;;;;;;;;;;10.40;99.90;;;;;;5152460;27;20025;-74
2021/12/24 13:50:23;;;;;;;;;;;10.40;99.90;;;;;;5153477;27;19907;-74
2021/12/24 13:55:36;;;;;;;;;;;10.40;99.90;;;;;;5153496;27;19914;-74
2021/12/24 13:58:08;;;;;;;;;;;10.40;99.90;;;;;;5152883;27;19929;-74
2021/12/24 14:00:34;;;;;;;;;;;10.40;99.90;;;;;;5135164;27;19914;-74
2021/12/24 14:03:01;;;;;;;;;;;10.40;99.90;;;;;;5153402;27;19913;-74
2021/12/24 14:05:27;;;;;;;;;;;10.40;99.90;;;;;;5152936;27;19907;-74
2021/12/24 14:08:03;;;;;;;;;;;10.40;99.90;;;;;;5153233;27;19960;-76
2021/12/24 14:10:29;;;;;;;;;;;10.30;99.90;;;;;;5152828;27;19907;-73
2021/12/24 14:13:02;;;;;;;;;;;10.30;99.90;;;;;;5153179;27;20378;-74
2021/12/24 14:15:29;;;;;;;;;;;10.30;99.90;;;;;;5134653;27;20374;-75
2021/12/24 14:20:58;;;;;;;;;;;10.30;99.90;;;;;;5155785;27;20424;-73
2021/12/24 14:23:18;;;;;;;;;;;10.30;99.90;;;;;;5154144;27;19911;-75
2021/12/24 14:25:56;;;;;;;;;;;10.30;99.90;;;;;;5157865;27;19918;-74
2021/12/24 14:28:23;;;;;;;;;;;10.30;99.90;;;;;;5137810;27;19915;-74
2021/12/24 14:30:48;;;;;;;;;;;10.30;99.90;;;;;;5157527;27;20002;-74
2021/12/24 14:33:14;;;;;;;;;;;10.30;99.90;;;;;;5156255;27;19946;-74
2021/12/24 14:35:44;;;;;;;;;;;10.20;99.90;;;;;;5157231;27;19947;-74
2021/12/24 14:38:15;;;;;;;;;;;10.20;99.90;;;;;;5156412;27;19911;-75
2021/12/24 14:40:41;;;;;;;;;;;10.20;99.90;;;;;;5156804;27;19961;-75
2021/12/24 14:43:11;;;;;;;;;;;10.20;99.90;;;;;;5156112;27;19907;-73
2021/12/24 14:45:39;;;;;;;;;;;10.20;99.90;;;;;;5156990;27;19907;-74
2021/12/24 14:48:09;;;;;;;;;;;10.20;99.90;;;;;;5156347;27;19965;-75
2021/12/24 14:50:45;;;;;;;;;;;10.20;99.90;;;;;;5156923;27;19955;-74
2021/12/24 14:53:11;;;;;;;;;;;10.20;99.90;;;;;;5155840;27;19945;-75
2021/12/24 14:55:41;;;;;;;;;;;10.10;99.90;;;;;;5156334;27;19947;-75
2021/12/24 14:58:06;;;;;;;;;;;10.20;99.90;;;;;;5155816;27;19958;-76
2021/12/24 15:00:34;;;;;;;;;;;10.20;99.90;;;;;;5156423;27;20386;-75
2021/12/24 15:03:07;;;;;;;;;;;10.10;99.90;;;;;;5156551;27;19975;-75
2021/12/24 15:05:38;;;;;;;;;;;10.10;99.90;;;;;;5138042;27;19915;-75
2021/12/24 15:08:14;;;;;;;;;;;10.10;99.90;;;;;;5156300;27;19915;-76
2021/12/24 15:10:53;;;;;;;;;;;10.10;99.90;;;;;;5156179;27;19915;-75
2021/12/24 15:13:20;;;;;;;;;;;10.10;99.90;;;;;;5155601;27;19908;-76
2021/12/24 15:15:50;;;;;;;;;;;10.10;99.90;;;;;;5137682;27;19956;-75
2021/12/24 15:18:16;;;;;;;;;;;10.10;99.90;;;;;;5155559;27;19951;-76
2021/12/24 15:20:42;;;;;;;;;;;10.00;99.90;;;;;;5155962;27;19997;-75
2021/12/24 15:23:07;;;;;;;;;;;10.00;99.90;;;;;;5155470;27;19914;-73
2021/12/24 15:25:34;;;;;;;;;;;10.00;99.90;;;;;;5137382;27;19952;-74
2021/12/24 15:28:07;;;;;;;;;;;10.00;99.90;;;;;;5155687;27;19948;-74
2021/12/24 15:30:32;;;;;;;;;;;10.00;99.90;;;;;;5156089;27;19907;-74
2021/12/24 15:32:58;;;;;;;;;;;10.00;99.90;;;;;;5156058;27;20370;-73
2021/12/24 15:35:23;;;;;;;;;;;10.00;99.90;;;;;;5155155;27;20468;-73
2021/12/24 15:37:49;;;;;;;;;;;10.00;99.90;;;;;;5154366;27;19963;-74
2021/12/24 15:40:15;;;;;;;;;;;10.00;99.90;;;;;;5134973;27;19954;-74
2021/12/24 15:42:40;;;;;;;;;;;10.00;99.90;;;;;;5117100;27;19907;-73
2021/12/24 15:45:06;;;;;;;;;;;10.00;99.90;;;;;;5136123;27;19907;-74
2021/12/24 15:47:31;;;;;;;;;;;10.00;99.90;;;;;;5133615;27;19968;-74
2021/12/24 15:49:57;;;;;;;;;;;10.00;99.90;;;;;;5134738;27;20327;-74
2021/12/24 15:52:23;;;;;;;;;;;10.00;99.90;;;;;;5152249;27;19911;-74
2021/12/24 15:54:48;;;;;;;;;;;10.00;99.90;;;;;;5154785;27;19911;-73
2021/12/24 15:57:14;;;;;;;;;;;10.00;99.90;;;;;;5154884;27;20241;-74
2021/12/24 15:59:40;;;;;;;;;;;10.00;99.90;;;;;;5155406;27;19914;-75
2021/12/24 16:02:07;;;;;;;;;;;10.00;99.90;;;;;;5134419;27;20342;-73
2021/12/24 16:04:34;;;;;;;;;;;10.00;99.90;;;;;;5134323;27;19915;-74
2021/12/24 16:07:00;;;;;;;;;;;10.00;99.90;;;;;;5134352;27;19919;-75
2021/12/24 16:09:26;;;;;;;;;;;10.00;99.90;;;;;;5133707;27;19908;-75
2021/12/24 16:11:52;;;;;;;;;;;10.00;99.90;;;;;;5138221;27;19952;-74
2021/12/24 16:14:20;;;;;;;;;;;10.00;99.90;;;;;;5153705;27;19918;-74